createdAt,value
2023-01-04T00:00:01.052Z,23.95
2023-01-04T00:02:28.813Z,25.50
2023-01-04T00:04:55.908Z,24.50
2023-01-04T00:07:23.068Z,24.55
2023-01-04T00:09:50.068Z,23.95
2023-01-04T00:12:17.077Z,24.40
2023-01-04T00:14:44.231Z,23.27
2023-01-04T00:17:11.201Z,22.60
2023-01-04T00:19:38.255Z,22.58
2023-01-04T00:22:05.501Z,22.20
2023-01-04T00:24:32.610Z,24.30
2023-01-04T00:26:59.728Z,27.45
2023-01-04T00:29:26.796Z,26.15
2023-01-04T00:31:53.979Z,23.73
2023-01-04T00:34:21.055Z,23.83
2023-01-04T00:36:48.250Z,24.27
2023-01-04T00:39:16.561Z,25.02
2023-01-04T00:42:02.253Z,24.73
2023-01-04T00:44:30.310Z,24.42
2023-01-04T00:46:58.281Z,24.60
2023-01-04T00:49:26.012Z,24.55
2023-01-04T00:51:53.351Z,24.13
2023-01-04T00:54:21.553Z,24.20
2023-01-04T00:56:49.141Z,25.38
2023-01-04T00:59:19.165Z,24.80
2023-01-04T01:01:46.768Z,24.10
2023-01-04T01:04:16.378Z,24.77
2023-01-04T01:06:43.495Z,24.73
2023-01-04T01:09:11.117Z,24.77
2023-01-04T01:11:39.786Z,23.48
2023-01-04T01:14:08.902Z,24.70
2023-01-04T01:16:54.193Z,26.00
2023-01-04T01:19:23.044Z,22.80
2023-01-04T01:21:50.071Z,21.90
2023-01-04T01:24:19.412Z,24.27
2023-01-04T01:26:46.666Z,22.60
2023-01-04T01:29:14.171Z,23.77
2023-01-04T01:31:42.178Z,23.63
2023-01-04T01:34:09.538Z,24.42
2023-01-04T01:36:37.251Z,24.27
2023-01-04T01:39:05.865Z,25.33
2023-01-04T01:41:34.509Z,25.38
2023-01-04T01:44:07.679Z,25.77
2023-01-04T01:46:38.142Z,24.65
2023-01-04T01:49:42.077Z,24.92
2023-01-04T01:52:14.367Z,25.40
2023-01-04T01:54:46.321Z,25.88
2023-01-04T01:57:18.694Z,24.27
2023-01-04T01:59:49.663Z,24.75
2023-01-04T02:02:16.841Z,24.90
2023-01-04T02:04:48.195Z,23.73
2023-01-04T02:07:20.079Z,25.08
2023-01-04T02:09:47.912Z,23.88
2023-01-04T02:12:15.402Z,25.60
2023-01-04T02:14:46.865Z,26.58
2023-01-04T02:17:20.972Z,25.15
2023-01-04T02:20:16.489Z,26.73
2023-01-04T02:22:44.582Z,28.02
2023-01-04T02:25:38.959Z,34.92
2023-01-04T02:28:45.751Z,38.03
2023-01-04T02:31:39.831Z,32.28
2023-01-04T02:34:36.335Z,24.52
2023-01-04T02:37:30.743Z,27.83
2023-01-04T02:40:04.536Z,25.00
2023-01-04T02:42:58.935Z,22.92
2023-01-04T02:45:34.674Z,17.60
2023-01-04T02:48:25.643Z,23.80
2023-01-04T02:50:54.290Z,22.75
2023-01-04T02:53:25.971Z,23.38
2023-01-04T02:56:07.219Z,23.80
2023-01-04T02:58:41.018Z,22.33
2023-01-04T03:01:55.921Z,22.75
2023-01-04T03:04:47.344Z,22.30
2023-01-04T03:07:24.916Z,22.00
2023-01-04T03:09:58.312Z,21.35
2023-01-04T03:12:35.975Z,20.13
2023-01-04T03:15:12.533Z,19.90
2023-01-04T03:17:46.042Z,20.23
2023-01-04T03:20:16.815Z,21.25
2023-01-04T03:23:15.588Z,21.25
2023-01-04T03:26:07.761Z,20.73
2023-01-04T03:28:57.069Z,20.40
2023-01-04T03:31:47.509Z,21.25
2023-01-04T03:34:35.232Z,21.23
2023-01-04T03:37:13.941Z,21.52
2023-01-04T03:40:05.720Z,21.75
2023-01-04T03:43:02.060Z,20.83
2023-01-04T03:45:56.414Z,22.17
2023-01-04T03:48:31.525Z,30.55
2023-01-04T03:51:21.928Z,26.98
2023-01-04T03:54:11.979Z,24.98
2023-01-04T03:56:42.402Z,23.67
2023-01-04T03:59:10.394Z,22.33
2023-01-04T04:01:38.845Z,21.42
2023-01-04T04:04:25.987Z,22.35
2023-01-04T04:07:12.968Z,21.85
2023-01-04T04:09:40.014Z,22.85
2023-01-04T04:12:07.200Z,24.02
2023-01-04T04:14:34.470Z,22.08
2023-01-04T04:17:01.620Z,23.02
2023-01-04T04:19:28.868Z,25.30
2023-01-04T04:21:55.920Z,31.23
2023-01-04T04:24:25.809Z,30.65
2023-01-04T04:26:55.885Z,29.00
2023-01-04T04:29:24.159Z,29.00
2023-01-04T04:31:52.244Z,28.27
2023-01-04T04:34:19.427Z,26.00
2023-01-04T04:36:47.431Z,24.63
2023-01-04T04:39:14.633Z,24.83
2023-01-04T04:41:42.062Z,22.13
2023-01-04T04:44:13.125Z,21.55
2023-01-04T04:46:40.639Z,22.10
2023-01-04T04:49:08.650Z,21.50
2023-01-04T04:51:36.369Z,20.90
2023-01-04T04:54:03.765Z,21.70
2023-01-04T04:56:30.866Z,23.42
2023-01-04T04:58:57.992Z,26.25
2023-01-04T05:01:25.154Z,23.63
2023-01-04T05:03:52.657Z,25.52
2023-01-04T05:06:19.938Z,24.30
2023-01-04T05:08:46.977Z,21.83
2023-01-04T05:11:14.270Z,23.60
2023-01-04T05:13:41.587Z,23.83
2023-01-04T05:16:10.090Z,22.65
2023-01-04T05:18:37.258Z,23.50
2023-01-04T05:21:04.744Z,21.92
2023-01-04T05:23:31.870Z,22.67
2023-01-04T05:26:01.178Z,22.58
2023-01-04T05:28:28.367Z,22.05
2023-01-04T05:30:55.974Z,23.23
2023-01-04T05:33:25.081Z,22.13
2023-01-04T05:35:53.482Z,21.98
2023-01-04T05:38:21.947Z,21.48
2023-01-04T05:40:49.742Z,21.15
2023-01-04T05:43:17.924Z,22.02
2023-01-04T05:45:48.574Z,21.55
2023-01-04T05:48:16.302Z,20.73
2023-01-04T05:50:43.647Z,21.08
2023-01-04T05:53:10.857Z,20.55
2023-01-04T05:55:38.109Z,22.13
2023-01-04T05:58:05.587Z,21.02
2023-01-04T06:00:33.011Z,20.55
2023-01-04T06:03:00.384Z,20.33
2023-01-04T06:05:27.567Z,21.00
2023-01-04T06:07:54.704Z,20.20
2023-01-04T06:10:21.832Z,20.23
2023-01-04T06:12:49.287Z,21.05
2023-01-04T06:15:16.482Z,20.25
2023-01-04T06:17:44.034Z,20.58
2023-01-04T06:20:11.745Z,23.42
2023-01-04T06:22:40.797Z,22.08
2023-01-04T06:25:09.328Z,21.17
2023-01-04T06:27:36.506Z,19.25
2023-01-04T06:30:04.546Z,19.77
2023-01-04T06:32:31.597Z,21.15
2023-01-04T06:34:58.972Z,22.40
2023-01-04T06:37:26.041Z,20.75
2023-01-04T06:39:53.512Z,21.20
2023-01-04T06:42:40.611Z,20.75
2023-01-04T06:45:08.512Z,22.25
2023-01-04T06:47:35.554Z,21.08
2023-01-04T06:50:02.694Z,20.25
2023-01-04T06:52:29.788Z,20.00
2023-01-04T06:54:56.824Z,20.85
2023-01-04T06:57:24.294Z,20.63
2023-01-04T06:59:51.330Z,21.15
2023-01-04T07:02:18.544Z,19.65
2023-01-04T07:04:46.888Z,20.00
2023-01-04T07:07:14.133Z,19.08
2023-01-04T07:09:41.400Z,19.33
2023-01-04T07:12:08.586Z,20.73
2023-01-04T07:14:35.602Z,18.80
2023-01-04T07:17:02.719Z,21.60
2023-01-04T07:19:29.778Z,20.98
2023-01-04T07:21:58.869Z,19.98
2023-01-04T07:24:30.286Z,18.73
2023-01-04T07:27:00.241Z,19.40
2023-01-04T07:29:27.663Z,19.17
2023-01-04T07:31:55.470Z,19.95
2023-01-04T07:34:24.974Z,19.13
2023-01-04T07:36:52.518Z,18.90
2023-01-04T07:39:20.525Z,19.85
2023-01-04T07:41:49.419Z,19.38
2023-01-04T07:44:19.646Z,19.02
2023-01-04T07:46:46.835Z,19.33
2023-01-04T07:49:17.717Z,17.55
2023-01-04T07:51:47.381Z,17.38
2023-01-04T07:54:15.548Z,18.77
2023-01-04T07:56:43.057Z,20.60
2023-01-04T07:59:11.686Z,18.95
2023-01-04T08:01:39.644Z,19.55
2023-01-04T08:04:08.584Z,21.50
2023-01-04T08:06:36.423Z,21.33
2023-01-04T08:09:04.517Z,20.60
2023-01-04T08:11:32.300Z,20.65
2023-01-04T08:13:59.555Z,21.58
2023-01-04T08:16:31.865Z,22.58
2023-01-04T08:19:01.050Z,22.52
2023-01-04T08:21:31.076Z,21.92
2023-01-04T08:23:58.287Z,21.83
2023-01-04T08:26:25.426Z,21.65
2023-01-04T08:28:52.828Z,23.15
2023-01-04T08:31:23.150Z,24.05
2023-01-04T08:33:51.270Z,23.27
2023-01-04T08:36:26.618Z,25.88
2023-01-04T08:38:59.757Z,25.30
2023-01-04T08:44:14.852Z,26.80
2023-01-04T08:46:41.991Z,24.85
2023-01-04T08:49:09.425Z,25.58
2023-01-04T08:51:36.709Z,26.70
2023-01-04T08:54:03.849Z,25.90
2023-01-04T08:56:31.029Z,26.02
2023-01-04T08:58:58.068Z,25.67
2023-01-04T09:01:25.460Z,25.30
2023-01-04T09:03:52.820Z,22.23
2023-01-04T09:06:19.954Z,21.77
2023-01-04T09:08:47.286Z,20.88
2023-01-04T09:11:17.147Z,19.48
2023-01-04T09:13:45.237Z,19.60
2023-01-04T09:16:15.844Z,18.45
2023-01-04T09:18:43.700Z,18.25
2023-01-04T09:21:14.710Z,19.20
2023-01-04T09:23:43.500Z,18.40
2023-01-04T09:26:14.792Z,17.92
2023-01-04T09:28:42.875Z,17.00
2023-01-04T09:31:13.342Z,16.38
2023-01-04T09:34:12.901Z,15.15
2023-01-04T09:36:28.952Z,16.17
2023-01-04T09:38:56.250Z,16.23
2023-01-04T09:41:27.157Z,15.75
2023-01-04T09:43:57.994Z,17.85
2023-01-04T09:46:29.585Z,15.77
2023-01-04T09:49:11.341Z,15.90
2023-01-04T09:51:41.568Z,17.00
2023-01-04T09:54:17.397Z,15.77
2023-01-04T09:56:51.497Z,14.90
2023-01-04T09:59:22.880Z,15.68
2023-01-04T10:01:54.428Z,15.75
2023-01-04T10:04:22.641Z,15.40
2023-01-04T10:06:50.229Z,15.68
2023-01-04T10:09:18.217Z,14.93
2023-01-04T10:12:20.937Z,15.70
2023-01-04T10:15:08.077Z,16.90
2023-01-04T10:23:52.897Z,15.52
2023-01-04T10:26:30.918Z,15.40
2023-01-04T10:29:17.965Z,13.98
2023-01-04T10:32:01.587Z,14.55
2023-01-04T10:34:33.331Z,13.65
2023-01-04T10:37:11.721Z,13.50
2023-01-04T10:39:38.972Z,13.00
2023-01-04T10:42:07.377Z,12.95
2023-01-04T10:45:09.184Z,13.57
2023-01-04T10:48:04.435Z,12.48
2023-01-04T10:50:54.300Z,11.93
2023-01-04T10:53:32.176Z,12.98
2023-01-04T10:56:25.022Z,10.75
2023-01-04T10:59:01.298Z,9.73
2023-01-04T11:01:37.913Z,9.65
2023-01-04T11:04:19.712Z,9.93
2023-01-04T11:07:22.524Z,9.38
2023-01-04T11:09:55.563Z,6.30
2023-01-04T11:12:24.011Z,3.92
2023-01-04T11:14:52.216Z,3.50
2023-01-04T11:17:21.499Z,3.35
2023-01-04T11:19:48.979Z,3.30
2023-01-04T11:22:30.129Z,3.25
2023-01-04T11:28:01.747Z,3.20
2023-01-04T11:30:38.515Z,3.90
2023-01-04T11:33:16.106Z,3.42
2023-01-04T11:35:48.394Z,3.70
2023-01-04T11:38:18.809Z,3.97
2023-01-04T11:41:02.937Z,3.00
2023-01-04T11:43:31.967Z,3.00
2023-01-04T11:46:05.241Z,3.75
2023-01-04T11:48:34.249Z,3.45
2023-01-04T11:51:02.316Z,4.20
2023-01-04T11:53:35.489Z,3.40
2023-01-04T11:56:13.476Z,2.78
2023-01-04T11:58:41.825Z,3.28
2023-01-04T12:01:22.054Z,3.38
2023-01-04T12:03:49.340Z,3.13
2023-01-04T12:06:30.710Z,3.15
2023-01-04T12:08:57.789Z,2.70
2023-01-04T12:11:30.534Z,2.70
2023-01-04T12:13:59.714Z,3.00
2023-01-04T12:16:47.976Z,3.08
2023-01-04T12:19:17.700Z,3.20
2023-01-04T12:21:48.407Z,3.38
2023-01-04T12:24:22.424Z,3.95
2023-01-04T12:26:51.411Z,3.15
2023-01-04T12:29:23.045Z,3.60
2023-01-04T12:31:52.725Z,3.63
2023-01-04T12:34:23.272Z,3.20
2023-01-04T12:36:51.368Z,3.40
2023-01-04T12:39:22.934Z,3.53
2023-01-04T12:42:05.449Z,2.97
2023-01-04T12:44:43.490Z,3.08
2023-01-04T12:47:50.276Z,3.38
2023-01-04T12:50:20.569Z,3.80
2023-01-04T12:55:44.935Z,3.00
2023-01-04T12:58:49.837Z,3.55
2023-01-04T13:01:25.785Z,3.72
2023-01-04T13:04:04.748Z,3.05
2023-01-04T13:06:39.981Z,3.75
2023-01-04T13:09:21.968Z,3.70
2023-01-04T13:12:15.869Z,3.28
2023-01-04T13:14:49.152Z,3.25
2023-01-04T13:17:18.600Z,3.88
2023-01-04T13:19:46.586Z,3.20
2023-01-04T13:22:28.883Z,3.58
2023-01-04T13:24:58.978Z,3.50
2023-01-04T13:27:27.588Z,3.42
2023-01-04T13:29:55.256Z,2.92
2023-01-04T13:32:29.314Z,2.92
2023-01-04T13:35:01.662Z,2.70
2023-01-04T13:37:31.619Z,2.92
2023-01-04T13:40:02.159Z,3.00
2023-01-04T13:42:35.933Z,3.10
2023-01-04T13:45:23.080Z,2.80
2023-01-04T13:47:55.943Z,3.03
2023-01-04T13:50:33.105Z,2.53
2023-01-04T13:53:06.808Z,2.63
2023-01-04T13:55:37.836Z,2.80
2023-01-04T13:58:08.117Z,3.10
2023-01-04T14:00:45.183Z,3.10
2023-01-04T14:03:21.644Z,2.95
2023-01-04T14:05:51.824Z,3.05
2023-01-04T14:08:36.076Z,3.00
2023-01-04T14:11:15.020Z,3.92
2023-01-04T14:13:48.058Z,3.70
2023-01-04T14:16:16.002Z,3.90
2023-01-04T14:18:43.224Z,4.60
2023-01-04T14:21:16.685Z,4.10
2023-01-04T14:23:44.105Z,4.05
2023-01-04T14:26:32.139Z,3.70
2023-01-04T14:28:59.550Z,3.38
2023-01-04T14:31:30.342Z,3.92
2023-01-04T14:33:57.946Z,3.72
2023-01-04T14:36:29.266Z,3.53
2023-01-04T14:39:11.299Z,3.30
2023-01-04T14:41:42.183Z,4.90
2023-01-04T14:44:11.693Z,3.53
2023-01-04T14:46:41.848Z,3.60
2023-01-04T14:49:09.380Z,3.53
2023-01-04T14:51:42.434Z,4.03
2023-01-04T14:54:11.977Z,3.42
2023-01-04T14:56:40.389Z,5.43
2023-01-04T14:59:08.155Z,3.90
2023-01-04T15:01:37.440Z,4.32
2023-01-04T15:04:05.974Z,4.43
2023-01-04T15:06:34.663Z,4.50
2023-01-04T15:09:01.821Z,4.40
2023-01-04T15:11:30.021Z,4.28
2023-01-04T15:13:57.308Z,4.32
2023-01-04T15:16:24.551Z,4.22
2023-01-04T15:18:51.817Z,4.45
2023-01-04T15:21:19.087Z,4.15
2023-01-04T15:23:46.333Z,4.50
2023-01-04T15:26:13.411Z,4.55
2023-01-04T15:28:41.107Z,4.75
2023-01-04T15:31:11.594Z,4.45
2023-01-04T15:33:39.364Z,4.50
2023-01-04T15:36:10.812Z,4.47
2023-01-04T15:38:38.021Z,3.95
2023-01-04T15:41:08.101Z,4.13
2023-01-04T15:43:36.832Z,4.47
2023-01-04T15:46:07.651Z,4.40
2023-01-04T15:48:36.254Z,4.55
2023-01-04T15:51:07.835Z,4.28
2023-01-04T15:53:35.471Z,4.97
2023-01-04T15:56:08.223Z,4.53
2023-01-04T15:58:35.501Z,4.50
2023-01-04T16:01:11.793Z,4.47
2023-01-04T16:03:39.301Z,5.13
2023-01-04T16:06:08.860Z,4.50
2023-01-04T16:08:36.286Z,4.75
2023-01-04T16:11:22.425Z,4.53
2023-01-04T16:13:51.030Z,4.95
2023-01-04T16:16:19.737Z,4.30
2023-01-04T16:18:49.370Z,4.57
2023-01-04T16:21:21.238Z,5.30
2023-01-04T16:23:54.871Z,5.57
2023-01-04T16:26:26.396Z,4.93
2023-01-04T16:28:55.949Z,5.78
2023-01-04T16:31:23.229Z,5.72
2023-01-04T16:33:53.204Z,6.70
2023-01-04T16:36:20.724Z,6.45
2023-01-04T16:38:47.725Z,7.88
2023-01-04T16:41:17.341Z,9.27
2023-01-04T16:43:49.458Z,9.60
2023-01-04T16:46:25.741Z,10.10
2023-01-04T16:48:56.314Z,8.93
2023-01-04T16:51:24.849Z,8.65
2023-01-04T16:53:52.962Z,8.23
2023-01-04T16:56:21.701Z,7.60
2023-01-04T16:58:49.299Z,6.65
2023-01-04T17:01:22.286Z,6.47
2023-01-04T17:03:51.423Z,7.50
2023-01-04T17:06:21.523Z,8.52
2023-01-04T17:08:50.305Z,7.63
2023-01-04T17:14:08.601Z,7.55
2023-01-04T17:16:35.927Z,10.30
2023-01-04T17:19:03.132Z,9.73
2023-01-04T17:21:34.275Z,10.60
2023-01-04T17:24:03.409Z,10.80
2023-01-04T17:26:32.822Z,10.77
2023-01-04T17:29:01.663Z,11.60
2023-01-04T17:31:31.943Z,10.27
2023-01-04T17:33:59.742Z,11.80
2023-01-04T17:36:27.060Z,10.80
2023-01-04T17:38:54.700Z,14.35
2023-01-04T17:41:24.090Z,15.48
2023-01-04T17:43:56.365Z,14.93
2023-01-04T17:46:25.052Z,17.15
2023-01-04T17:49:17.893Z,18.67
2023-01-04T17:51:40.244Z,19.08
2023-01-04T17:54:08.536Z,18.25
2023-01-04T17:56:37.716Z,18.02
2023-01-04T17:59:07.073Z,17.35
2023-01-04T18:01:35.711Z,16.55
2023-01-04T18:04:03.741Z,16.15
2023-01-04T18:06:34.644Z,16.80
2023-01-04T18:09:03.157Z,18.40
2023-01-04T18:11:30.657Z,13.45
2023-01-04T18:13:57.908Z,17.08
2023-01-04T18:16:28.619Z,16.42
2023-01-04T18:18:57.747Z,20.85
2023-01-04T18:21:28.868Z,21.02
2023-01-04T18:29:38.690Z,18.38
2023-01-04T18:32:06.089Z,19.85
2023-01-04T18:34:33.279Z,28.50
2023-01-04T18:37:01.297Z,33.15
2023-01-04T18:39:28.455Z,30.98
2023-01-04T18:41:56.229Z,23.17
2023-01-04T18:44:44.096Z,15.90
2023-01-04T18:47:10.611Z,17.45
2023-01-04T18:49:39.152Z,17.85
2023-01-04T18:52:07.469Z,19.80
2023-01-04T18:54:38.779Z,15.75
2023-01-04T18:57:06.071Z,12.60
2023-01-04T18:59:34.479Z,12.25
2023-01-04T19:02:02.801Z,12.60
2023-01-04T19:04:32.961Z,13.68
2023-01-04T19:07:00.851Z,15.75
2023-01-04T19:09:28.821Z,17.02
2023-01-04T19:11:56.044Z,13.57
2023-01-04T19:14:24.746Z,13.07
2023-01-04T19:16:54.507Z,13.18
2023-01-04T19:19:22.074Z,13.88
2023-01-04T19:21:49.807Z,13.55
2023-01-04T19:24:17.339Z,18.40
2023-01-04T19:26:45.040Z,18.35
2023-01-04T19:29:12.895Z,16.33
2023-01-04T19:31:40.037Z,15.70
2023-01-04T19:34:09.887Z,15.07
2023-01-04T19:36:37.912Z,13.07
2023-01-04T19:39:09.329Z,11.65
2023-01-04T19:41:38.491Z,12.60
2023-01-04T19:44:08.475Z,13.07
2023-01-04T19:46:38.719Z,12.90
2023-01-04T19:49:14.280Z,13.10
2023-01-04T19:51:45.351Z,13.73
2023-01-04T19:54:13.208Z,14.07
2023-01-04T19:56:40.460Z,14.32
2023-01-04T19:59:08.105Z,14.50
2023-01-04T20:01:35.375Z,14.48
2023-01-04T20:04:03.123Z,14.95
2023-01-04T20:06:30.427Z,13.73
2023-01-04T20:08:57.852Z,15.27
2023-01-04T20:11:25.278Z,19.40
2023-01-04T20:13:52.698Z,22.27
2023-01-04T20:16:19.889Z,19.33
2023-01-04T20:18:47.174Z,21.08
2023-01-04T20:21:15.069Z,20.52
2023-01-04T20:23:43.994Z,15.60
2023-01-04T20:26:16.167Z,14.23
2023-01-04T20:28:46.075Z,13.27
2023-01-04T20:31:16.477Z,15.35
2023-01-04T20:33:44.371Z,15.00
2023-01-04T20:36:15.687Z,15.63
2023-01-04T20:38:45.706Z,16.13
2023-01-04T20:41:16.920Z,16.38
2023-01-04T20:43:45.505Z,22.02
2023-01-04T20:46:15.085Z,32.78
2023-01-04T20:48:42.573Z,31.17
2023-01-04T20:51:13.970Z,32.75
2023-01-04T20:53:41.444Z,32.42
2023-01-04T20:56:13.428Z,30.42
2023-01-04T20:58:40.687Z,24.80
2023-01-04T21:01:09.121Z,18.48
2023-01-04T21:03:36.726Z,18.98
2023-01-04T21:06:07.413Z,17.33
2023-01-04T21:08:36.178Z,17.80
2023-01-04T21:11:04.273Z,15.85
2023-01-04T21:13:31.869Z,16.50
2023-01-04T21:15:59.667Z,17.95
2023-01-04T21:18:26.785Z,16.58
2023-01-04T21:20:54.625Z,14.85
2023-01-04T21:23:23.899Z,14.88
2023-01-04T21:25:51.163Z,14.48
2023-01-04T21:28:20.654Z,14.95
2023-01-04T21:30:49.638Z,14.20
2023-01-04T21:33:17.757Z,15.43
2023-01-04T21:35:44.904Z,16.65
2023-01-04T21:38:12.001Z,17.73
2023-01-04T21:40:40.476Z,18.75
2023-01-04T21:43:08.276Z,16.95
2023-01-04T21:45:39.861Z,18.38
2023-01-04T21:48:07.211Z,18.63
2023-01-04T21:50:35.045Z,17.95
2023-01-04T21:53:02.528Z,18.75
2023-01-04T21:55:34.597Z,18.10
2023-01-04T21:58:02.910Z,17.20
2023-01-04T22:00:30.214Z,17.00
2023-01-04T22:02:57.493Z,17.83
2023-01-04T22:05:24.724Z,15.88
2023-01-04T22:07:51.996Z,15.20
2023-01-04T22:10:19.151Z,17.27
2023-01-04T22:12:48.041Z,17.17
2023-01-04T22:15:15.328Z,16.40
2023-01-04T22:17:42.426Z,13.80
2023-01-04T22:20:10.767Z,12.70
2023-01-04T22:22:38.118Z,14.18
2023-01-04T22:25:05.594Z,14.13
2023-01-04T22:27:32.635Z,12.73
2023-01-04T22:29:59.710Z,15.65
2023-01-04T22:32:26.774Z,16.30
2023-01-04T22:34:54.128Z,15.15
2023-01-04T22:37:21.149Z,14.82
2023-01-04T22:39:48.493Z,15.57
2023-01-04T22:42:15.517Z,17.05
2023-01-04T22:44:42.697Z,18.40
2023-01-04T22:47:09.752Z,18.92
2023-01-04T22:49:36.731Z,20.70
2023-01-04T22:52:04.049Z,18.02
2023-01-04T22:54:33.027Z,18.38
2023-01-04T22:57:00.416Z,18.95
2023-01-04T22:59:27.783Z,16.25
2023-01-04T23:01:54.855Z,15.18
2023-01-04T23:04:22.346Z,15.35
2023-01-04T23:06:49.535Z,14.93
2023-01-04T23:09:18.896Z,15.40
2023-01-04T23:11:46.150Z,14.93
2023-01-04T23:14:15.706Z,15.38
2023-01-04T23:16:43.858Z,14.85
2023-01-04T23:19:13.415Z,14.20
2023-01-04T23:21:40.608Z,14.50
2023-01-04T23:24:08.363Z,13.95
2023-01-04T23:26:35.401Z,13.77
2023-01-04T23:29:02.876Z,14.27
2023-01-04T23:31:32.204Z,14.30
2023-01-04T23:34:02.561Z,13.45
2023-01-04T23:36:33.821Z,11.77
2023-01-04T23:39:05.083Z,11.60
2023-01-04T23:41:48.364Z,12.23
2023-01-04T23:44:19.296Z,13.82
2023-01-04T23:46:51.414Z,12.93
2023-01-04T23:49:18.840Z,12.43
2023-01-04T23:51:46.032Z,13.95
2023-01-04T23:54:13.323Z,12.50
2023-01-04T23:56:40.953Z,12.90
2023-01-04T23:59:08.356Z,11.90
